Costa Pacifica — ICJA — position and weather

sailwx.info

Track history (hours):
 
Tides and Currents Weather Stations Pressure Air Temp Water Temp Dewpoint Dewpoint Depression Visibility Wind Speed Wind Dir Waves Ship Positions

Costa Pacifica

Last reported at 2020-Aug-10 00:29 UTC. Time now 2020-Aug-10 01:36 UTC.
Position N 44°03' E 009°54'.

Length 290 m; draft 8.3 m.

Type: Passenger vessel. MMSI: 247258100.

Date/timePositionNaut miles runAvg speedWind from/ knotsBaromVisibWave heightAir tempDewpointWater temp
2020-Aug-10 00:29N 44°03' E 009°54'0 0.0
2020-Aug-09 23:26N 44°03' E 009°54'0 0.0
2020-Aug-09 19:58N 44°03' E 009°54'0 0.0
2020-Aug-09 18:30N 44°03' E 009°54'0 0.0
2020-Aug-09 16:29N 44°03' E 009°54'0 0.0
2020-Aug-09 14:58N 44°03' E 009°54'0 0.0
2020-Aug-09 12:30N 44°03' E 009°54'0 0.0
2020-Aug-09 11:00N 44°03' E 009°54'0 0.0
2020-Aug-09 09:29N 44°03' E 009°54'0 0.0
2020-Aug-09 07:28N 44°03' E 009°54'0 0.0
2020-Aug-09 06:58N 44°03' E 009°54'0 0.0
2020-Aug-09 05:30N 44°03' E 009°54'0 0.0
2020-Aug-09 04:30N 44°03' E 009°54'0 0.0
2020-Aug-08 23:28N 44°03' E 009°54'0 0.0
2020-Aug-08 22:30N 44°03' E 009°54'0 0.0
2020-Aug-08 21:27N 44°03' E 009°54'3 0.7
2020-Aug-08 17:30N 44°05' E 009°51'378.0
2020-Aug-08 17:28N 44°03' E 009°53'0 0.0
2020-Aug-08 14:31N 44°03' E 009°54'0 0.5
2020-Aug-08 14:27N 44°03' E 009°54'0 0.1
2020-Aug-08 13:00N 44°03' E 009°53'0 8.0
2020-Aug-08 12:59N 44°03' E 009°54'0 0.0
2020-Aug-08 11:28N 44°03' E 009°54'0 0.0
2020-Aug-08 10:58N 44°03' E 009°54'426.1
2020-Aug-08 10:49N 44°06' E 009°50'4 3.0
2020-Aug-08 09:28N 44°03' E 009°54'0 0.2
2020-Aug-08 09:18N 44°03' E 009°54'0 0.1
2020-Aug-08 09:00N 44°03' E 009°54'31509.2
2020-Aug-08 09:00N 44°05' E 009°51'3 2.5
2020-Aug-08 08:00N 44°03' E 009°54'0 0.0
2020-Aug-08 04:59N 44°03' E 009°54'0 0.1
2020-Aug-08 03:58N 44°03' E 009°54'0 0.0
2020-Aug-08 03:28N 44°03' E 009°54'0 0.1
2020-Aug-08 02:58N 44°03' E 009°54'0 0.0
2020-Aug-08 01:00N 44°03' E 009°53'0 0.0
2020-Aug-07 23:59N 44°03' E 009°54'0 0.0
2020-Aug-07 21:59N 44°03' E 009°54'0 0.0
2020-Aug-07 19:31N 44°03' E 009°53'0 0.0
2020-Aug-07 17:30N 44°03' E 009°54'0 0.0
2020-Aug-07 16:29N 44°03' E 009°54'0 0.0
2020-Aug-07 13:58N 44°03' E 009°54'0 0.0
2020-Aug-07 12:58N 44°03' E 009°54'0 0.1
2020-Aug-07 12:27N 44°03' E 009°54'0 0.0
2020-Aug-07 10:27N 44°03' E 009°53'0 0.0
2020-Aug-07 09:59N 44°03' E 009°53'0 0.0
2020-Aug-07 06:28N 44°03' E 009°53'0 0.0
2020-Aug-07 05:00N 44°03' E 009°54'0 0.0
2020-Aug-07 04:30N 44°03' E 009°54'0 0.0
2020-Aug-07 03:57N 44°03' E 009°53'0 0.1
2020-Aug-07 03:30N 44°03' E 009°54'0 0.0
2020-Aug-07 00:58N 44°03' E 009°54'0 0.0
2020-Aug-06 23:28N 44°03' E 009°54'0 0.0
2020-Aug-06 21:30N 44°03' E 009°54'0 0.0
2020-Aug-06 19:59N 44°03' E 009°53'0 0.0
2020-Aug-06 15:58N 44°03' E 009°54'4 1.6
2020-Aug-06 13:30N 44°06' E 009°50'4259.9
2020-Aug-06 13:30N 44°03' E 009°54'0 0.0
2020-Aug-05 19:58N 44°03' E 009°54'0 0.1
2020-Aug-05 19:25N 44°03' E 009°54'0 0.0
2020-Aug-05 17:30N 44°03' E 009°53'0 0.0
2020-Aug-05 13:58N 44°03' E 009°54'0 0.0
2020-Aug-05 12:58N 44°03' E 009°54'0 0.0
2020-Aug-05 12:28N 44°03' E 009°54'0 0.0
2020-Aug-05 09:26N 44°03' E 009°54'0 0.0
2020-Aug-05 06:30N 44°03' E 009°54'0 0.0
2020-Aug-05 04:30N 44°03' E 009°54'0 0.0
2020-Aug-05 00:29N 44°03' E 009°54'0 0.0
2020-Aug-04 22:29N 44°03' E 009°54'0 0.0
2020-Aug-04 21:00N 44°03' E 009°54'0 0.0
2020-Aug-04 20:00N 44°03' E 009°54'0 0.0
2020-Aug-04 16:58N 44°03' E 009°54'0 0.0
2020-Aug-04 10:59N 44°03' E 009°54'413.3
2020-Aug-04 10:40N 44°06' E 009°50'4 3.5
2020-Aug-04 09:28N 44°03' E 009°54'0 0.0
2020-Aug-04 08:58N 44°03' E 009°54'0 0.1
2020-Aug-04 08:46N 44°03' E 009°54'2 8.9
2020-Aug-04 08:30N 44°04' E 009°51'247.2
2020-Aug-04 08:28N 44°03' E 009°53'0 0.0
2020-Aug-04 04:59N 44°03' E 009°54'0 0.0
2020-Aug-04 03:59N 44°03' E 009°53'0 0.0
2020-Aug-04 02:58N 44°03' E 009°53'0 0.0
2020-Aug-03 22:29N 44°03' E 009°54'0 0.0
2020-Aug-03 17:30N 44°03' E 009°54'0 0.0
2020-Aug-03 16:30N 44°03' E 009°54'0 0.1
2020-Aug-03 15:29N 44°03' E 009°54'0 0.0
2020-Aug-03 12:58N 44°03' E 009°54'0 0.0
2020-Aug-03 11:00N 44°03' E 009°54'0 0.1
2020-Aug-03 10:00N 44°03' E 009°54'0 0.1
2020-Aug-03 09:21N 44°03' E 009°53'0 0.0
2020-Aug-03 08:59N 44°03' E 009°53'0 0.1
2020-Aug-03 06:59N 44°03' E 009°53'0 0.0
2020-Aug-03 05:28N 44°03' E 009°54'0 0.0
2020-Aug-03 04:28N 44°03' E 009°53'0 0.1
2020-Aug-03 03:30N 44°03' E 009°54'0 0.0
2020-Aug-02 23:56N 44°03' E 009°53'0 0.0
2020-Aug-02 17:29N 44°03' E 009°53'0 0.0
2020-Aug-02 16:28N 44°03' E 009°53'0 0.0
2020-Aug-02 13:30N 44°03' E 009°53'0 0.0
2020-Aug-02 12:57N 44°03' E 009°53'0 0.0
2020-Aug-02 12:30N 44°03' E 009°53'0 0.0
2020-Aug-02 10:29N 44°03' E 009°53'0 0.0
2020-Aug-02 09:59N 44°03' E 009°53'0 0.0
2020-Aug-02 06:30N 44°03' E 009°53'0 0.0
2020-Aug-02 04:59N 44°03' E 009°53'0 0.0
2020-Aug-02 04:29N 44°03' E 009°53'0 0.0
2020-Aug-02 03:59N 44°03' E 009°53'0 0.0
2020-Aug-02 02:59N 44°03' E 009°53'0 0.0
2020-Aug-02 01:58N 44°03' E 009°53'0 0.0
2020-Aug-02 00:58N 44°03' E 009°53'0 0.0
2020-Aug-01 22:30N 44°03' E 009°53'0 0.0
2020-Aug-01 16:00N 44°03' E 009°53'0 0.2
2020-Aug-01 15:48N 44°03' E 009°53'0 0.0
2020-Aug-01 13:59N 44°03' E 009°53'0 0.0
2020-Aug-01 11:28N 44°03' E 009°53'0 0.0
2020-Aug-01 09:30N 44°03' E 009°53'0 0.0
2020-Aug-01 05:28N 44°03' E 009°53'0 0.0
2020-Aug-01 03:00N 44°03' E 009°53'0 0.0
2020-Aug-01 02:30N 44°03' E 009°53'0 0.0
2020-Aug-01 00:29N 44°03' E 009°53'0 0.0
2020-Jul-31 23:59N 44°03' E 009°53'0 0.0
2020-Jul-31 21:28N 44°03' E 009°53'0 0.0
2020-Jul-31 17:59N 44°03' E 009°53'0 0.0
2020-Jul-31 15:28N 44°03' E 009°53'0 0.0
2020-Jul-31 12:00N 44°03' E 009°53'4106.0
2020-Jul-31 11:57N 44°06' E 009°50'0 0.0
2020-Jul-31 10:00N 44°06' E 009°50'4199.6
2020-Jul-31 09:59N 44°03' E 009°53'4 1.1
2020-Jul-31 06:29N 44°06' E 009°50'0 0.0
2020-Jul-31 05:59N 44°06' E 009°50'0 0.0
2020-Jul-31 04:58N 44°06' E 009°50'0 0.0
2020-Jul-31 03:58N 44°06' E 009°50'0 0.0
2020-Jul-31 00:59N 44°06' E 009°50'  
Track history (hours):
 
Tides and Currents Weather Stations Pressure Air Temp Water Temp Dewpoint Dewpoint Depression Visibility Wind Speed Wind Dir Waves Ship Positions

Costa Pacifica

Last reported at 2020-Aug-10 00:29 UTC. Time now 2020-Aug-10 01:36 UTC.
Position N 44°03' E 009°54'.

Length 290 m; draft 8.3 m.

Type: Passenger vessel. MMSI: 247258100.

Date/timePositionNaut miles runAvg speedWind from/ knotsBaromVisibWave heightAir tempDewpointWater temp
2020-Aug-10 00:29N 44°03' E 009°54'0 0.0
2020-Aug-09 23:26N 44°03' E 009°54'0 0.0
2020-Aug-09 19:58N 44°03' E 009°54'0 0.0
2020-Aug-09 18:30N 44°03' E 009°54'0 0.0
2020-Aug-09 16:29N 44°03' E 009°54'0 0.0
2020-Aug-09 14:58N 44°03' E 009°54'0 0.0
2020-Aug-09 12:30N 44°03' E 009°54'0 0.0
2020-Aug-09 11:00N 44°03' E 009°54'0 0.0
2020-Aug-09 09:29N 44°03' E 009°54'0 0.0
2020-Aug-09 07:28N 44°03' E 009°54'0 0.0
2020-Aug-09 06:58N 44°03' E 009°54'0 0.0
2020-Aug-09 05:30N 44°03' E 009°54'0 0.0
2020-Aug-09 04:30N 44°03' E 009°54'0 0.0
2020-Aug-08 23:28N 44°03' E 009°54'0 0.0
2020-Aug-08 22:30N 44°03' E 009°54'0 0.0
2020-Aug-08 21:27N 44°03' E 009°54'3 0.7
2020-Aug-08 17:30N 44°05' E 009°51'378.0
2020-Aug-08 17:28N 44°03' E 009°53'0 0.0
2020-Aug-08 14:31N 44°03' E 009°54'0 0.5
2020-Aug-08 14:27N 44°03' E 009°54'0 0.1
2020-Aug-08 13:00N 44°03' E 009°53'0 8.0
2020-Aug-08 12:59N 44°03' E 009°54'0 0.0
2020-Aug-08 11:28N 44°03' E 009°54'0 0.0
2020-Aug-08 10:58N 44°03' E 009°54'426.1
2020-Aug-08 10:49N 44°06' E 009°50'4 3.0
2020-Aug-08 09:28N 44°03' E 009°54'0 0.2
2020-Aug-08 09:18N 44°03' E 009°54'0 0.1
2020-Aug-08 09:00N 44°03' E 009°54'31509.2
2020-Aug-08 09:00N 44°05' E 009°51'3 2.5
2020-Aug-08 08:00N 44°03' E 009°54'0 0.0
2020-Aug-08 04:59N 44°03' E 009°54'0 0.1
2020-Aug-08 03:58N 44°03' E 009°54'0 0.0
2020-Aug-08 03:28N 44°03' E 009°54'0 0.1
2020-Aug-08 02:58N 44°03' E 009°54'0 0.0
2020-Aug-08 01:00N 44°03' E 009°53'0 0.0
2020-Aug-07 23:59N 44°03' E 009°54'0 0.0
2020-Aug-07 21:59N 44°03' E 009°54'0 0.0
2020-Aug-07 19:31N 44°03' E 009°53'0 0.0
2020-Aug-07 17:30N 44°03' E 009°54'0 0.0
2020-Aug-07 16:29N 44°03' E 009°54'0 0.0
2020-Aug-07 13:58N 44°03' E 009°54'0 0.0
2020-Aug-07 12:58N 44°03' E 009°54'0 0.1
2020-Aug-07 12:27N 44°03' E 009°54'0 0.0
2020-Aug-07 10:27N 44°03' E 009°53'0 0.0
2020-Aug-07 09:59N 44°03' E 009°53'0 0.0
2020-Aug-07 06:28N 44°03' E 009°53'0 0.0
2020-Aug-07 05:00N 44°03' E 009°54'0 0.0
2020-Aug-07 04:30N 44°03' E 009°54'0 0.0
2020-Aug-07 03:57N 44°03' E 009°53'0 0.1
2020-Aug-07 03:30N 44°03' E 009°54'0 0.0
2020-Aug-07 00:58N 44°03' E 009°54'0 0.0
2020-Aug-06 23:28N 44°03' E 009°54'0 0.0
2020-Aug-06 21:30N 44°03' E 009°54'0 0.0
2020-Aug-06 19:59N 44°03' E 009°53'0 0.0
2020-Aug-06 15:58N 44°03' E 009°54'4 1.6
2020-Aug-06 13:30N 44°06' E 009°50'4259.9
2020-Aug-06 13:30N 44°03' E 009°54'0 0.0
2020-Aug-05 19:58N 44°03' E 009°54'0 0.1
2020-Aug-05 19:25N 44°03' E 009°54'0 0.0
2020-Aug-05 17:30N 44°03' E 009°53'0 0.0
2020-Aug-05 13:58N 44°03' E 009°54'0 0.0
2020-Aug-05 12:58N 44°03' E 009°54'0 0.0
2020-Aug-05 12:28N 44°03' E 009°54'0 0.0
2020-Aug-05 09:26N 44°03' E 009°54'0 0.0
2020-Aug-05 06:30N 44°03' E 009°54'0 0.0
2020-Aug-05 04:30N 44°03' E 009°54'0 0.0
2020-Aug-05 00:29N 44°03' E 009°54'0 0.0
2020-Aug-04 22:29N 44°03' E 009°54'0 0.0
2020-Aug-04 21:00N 44°03' E 009°54'0 0.0
2020-Aug-04 20:00N 44°03' E 009°54'0 0.0
2020-Aug-04 16:58N 44°03' E 009°54'0 0.0
2020-Aug-04 10:59N 44°03' E 009°54'413.3
2020-Aug-04 10:40N 44°06' E 009°50'4 3.5
2020-Aug-04 09:28N 44°03' E 009°54'0 0.0
2020-Aug-04 08:58N 44°03' E 009°54'0 0.1
2020-Aug-04 08:46N 44°03' E 009°54'2 8.9
2020-Aug-04 08:30N 44°04' E 009°51'247.2
2020-Aug-04 08:28N 44°03' E 009°53'0 0.0
2020-Aug-04 04:59N 44°03' E 009°54'0 0.0
2020-Aug-04 03:59N 44°03' E 009°53'0 0.0
2020-Aug-04 02:58N 44°03' E 009°53'0 0.0
2020-Aug-03 22:29N 44°03' E 009°54'0 0.0
2020-Aug-03 17:30N 44°03' E 009°54'0 0.0
2020-Aug-03 16:30N 44°03' E 009°54'0 0.1
2020-Aug-03 15:29N 44°03' E 009°54'0 0.0
2020-Aug-03 12:58N 44°03' E 009°54'0 0.0
2020-Aug-03 11:00N 44°03' E 009°54'0 0.1
2020-Aug-03 10:00N 44°03' E 009°54'0 0.1
2020-Aug-03 09:21N 44°03' E 009°53'0 0.0
2020-Aug-03 08:59N 44°03' E 009°53'0 0.1
2020-Aug-03 06:59N 44°03' E 009°53'0 0.0
2020-Aug-03 05:28N 44°03' E 009°54'0 0.0
2020-Aug-03 04:28N 44°03' E 009°53'0 0.1
2020-Aug-03 03:30N 44°03' E 009°54'0 0.0
2020-Aug-02 23:56N 44°03' E 009°53'0 0.0
2020-Aug-02 17:29N 44°03' E 009°53'0 0.0
2020-Aug-02 16:28N 44°03' E 009°53'0 0.0
2020-Aug-02 13:30N 44°03' E 009°53'0 0.0
2020-Aug-02 12:57N 44°03' E 009°53'0 0.0
2020-Aug-02 12:30N 44°03' E 009°53'0 0.0
2020-Aug-02 10:29N 44°03' E 009°53'0 0.0
2020-Aug-02 09:59N 44°03' E 009°53'0 0.0
2020-Aug-02 06:30N 44°03' E 009°53'0 0.0
2020-Aug-02 04:59N 44°03' E 009°53'0 0.0
2020-Aug-02 04:29N 44°03' E 009°53'0 0.0
2020-Aug-02 03:59N 44°03' E 009°53'0 0.0
2020-Aug-02 02:59N 44°03' E 009°53'0 0.0
2020-Aug-02 01:58N 44°03' E 009°53'0 0.0
2020-Aug-02 00:58N 44°03' E 009°53'0 0.0
2020-Aug-01 22:30N 44°03' E 009°53'0 0.0
2020-Aug-01 16:00N 44°03' E 009°53'0 0.2
2020-Aug-01 15:48N 44°03' E 009°53'0 0.0
2020-Aug-01 13:59N 44°03' E 009°53'0 0.0
2020-Aug-01 11:28N 44°03' E 009°53'0 0.0
2020-Aug-01 09:30N 44°03' E 009°53'0 0.0
2020-Aug-01 05:28N 44°03' E 009°53'0 0.0
2020-Aug-01 03:00N 44°03' E 009°53'0 0.0
2020-Aug-01 02:30N 44°03' E 009°53'0 0.0
2020-Aug-01 00:29N 44°03' E 009°53'0 0.0
2020-Jul-31 23:59N 44°03' E 009°53'0 0.0
2020-Jul-31 21:28N 44°03' E 009°53'0 0.0
2020-Jul-31 17:59N 44°03' E 009°53'0 0.0
2020-Jul-31 15:28N 44°03' E 009°53'0 0.0
2020-Jul-31 12:00N 44°03' E 009°53'4106.0
2020-Jul-31 11:57N 44°06' E 009°50'0 0.0
2020-Jul-31 10:00N 44°06' E 009°50'4199.6
2020-Jul-31 09:59N 44°03' E 009°53'4 1.1
2020-Jul-31 06:29N 44°06' E 009°50'0 0.0
2020-Jul-31 05:59N 44°06' E 009°50'0 0.0
2020-Jul-31 04:58N 44°06' E 009°50'0 0.0
2020-Jul-31 03:58N 44°06' E 009°50'0 0.0
2020-Jul-31 00:59N 44°06' E 009°50'  

Dump ship's entire track history